Time;durP1;ratioP1;P1;durP2;ratioP2;P2;SDS_P1;SDS_P2;PMS_P1;PMS_P2;Temp;Humidity;BMP_temperature;BMP_pressure;BME280_temperature;BME280_humidity;BME280_pressure;Samples;Min_cycle;Max_cycle;Signal;HPM_P1;HPM_P2
2021/04/29 00:00:44;;;;;;;1.17;1.17;;;;;;;18.29;44.03;95258.28;5077363;28;20846;-55
2021/04/29 00:03:09;;;;;;;1.38;1.20;;;;;;;18.28;43.84;95272.94;5065083;28;20087;-55
2021/04/29 00:05:35;;;;;;;1.70;1.60;;;;;;;18.28;43.80;95262.09;5050298;28;20547;-55
2021/04/29 00:08:01;;;;;;;1.35;1.35;;;;;;;18.27;43.98;95255.06;5043541;28;20421;-56
2021/04/29 00:10:29;;;;;;;1.13;1.13;;;;;;;18.26;43.66;95256.16;5049187;28;20068;-55
2021/04/29 00:12:54;;;;;;;1.40;1.30;;;;;;;18.26;43.65;95261.56;5061666;28;20060;-55
2021/04/29 00:15:20;;;;;;;1.23;1.23;;;;;;;18.23;43.50;95255.66;5063841;28;20471;-57
2021/04/29 00:17:45;;;;;;;1.35;1.35;;;;;;;18.23;43.97;95250.22;5064042;28;20519;-55
2021/04/29 00:20:16;;;;;;;1.20;1.20;;;;;;;18.23;43.41;95252.13;5065120;28;20540;-56
2021/04/29 00:22:42;;;;;;;1.40;1.30;;;;;;;18.22;43.72;95262.19;5064729;28;20051;-56
2021/04/29 00:25:08;;;;;;;1.20;1.20;;;;;;;18.22;43.81;95255.97;5063288;28;20068;-55
2021/04/29 00:27:33;;;;;;;1.42;1.35;;;;;;;18.22;43.76;95256.75;5063081;28;20436;-56
2021/04/29 00:29:59;;;;;;;1.25;1.25;;;;;;;18.21;44.04;95249.72;5062962;28;20076;-55
2021/04/29 00:32:24;;;;;;;1.10;1.10;;;;;;;18.20;43.55;95253.53;5062190;28;20147;-55
2021/04/29 00:34:50;;;;;;;1.60;1.50;;;;;;;18.21;43.68;95262.47;5060600;28;20080;-54
2021/04/29 00:37:16;;;;;;;1.60;1.50;;;;;;;18.20;43.99;95258.16;5056277;28;20542;-55
2021/04/29 00:39:41;;;;;;;1.30;1.30;;;;;;;18.19;43.85;95261.97;5068011;28;20125;-55
2021/04/29 00:42:07;;;;;;;1.30;1.30;;;;;;;18.19;43.90;95264.66;5067469;28;20593;-54
2021/04/29 00:44:33;;;;;;;1.55;1.33;;;;;;;18.17;43.63;95256.03;5069326;28;20416;-54
2021/04/29 00:46:58;;;;;;;0.98;0.98;;;;;;;18.17;43.67;95254.13;5076299;28;20087;-55
2021/04/29 00:49:24;;;;;;;1.30;1.20;;;;;;;18.16;43.80;95257.94;5086139;28;20044;-55
2021/04/29 00:51:49;;;;;;;1.00;1.00;;;;;;;18.17;43.70;95269.59;5087252;28;20064;-55
2021/04/29 00:54:15;;;;;;;1.20;1.20;;;;;;;18.15;43.93;95269.88;5086956;28;20040;-55
2021/04/29 00:56:41;;;;;;;1.40;1.30;;;;;;;18.15;43.56;95261.72;5088253;28;20863;-55
2021/04/29 00:59:06;;;;;;;1.08;1.08;;;;;;;18.14;43.96;95257.44;5087018;28;20083;-55
2021/04/29 01:01:32;;;;;;;0.93;0.93;;;;;;;18.14;43.85;95262.84;5073415;28;20135;-54
2021/04/29 01:03:59;;;;;;;1.33;1.23;;;;;;;18.14;43.80;95256.63;5065061;28;20135;-54
2021/04/29 01:06:38;;;;;;;1.20;1.20;;;;;;;18.12;43.52;95262.34;5065419;28;20101;-54
2021/04/29 01:09:10;;;;;;;1.20;1.20;;;;;;;18.12;43.68;95251.50;5066900;28;20394;-54
2021/04/29 01:11:36;;;;;;;1.20;1.20;;;;;;;18.12;43.66;95256.91;5062630;28;20423;-54
2021/04/29 01:14:03;;;;;;;1.00;1.00;;;;;;;18.12;43.75;95251.50;5049075;28;20044;-55
2021/04/29 01:16:29;;;;;;;1.23;1.23;;;;;;;18.10;43.58;95251.00;5066942;28;20048;-55
2021/04/29 01:18:56;;;;;;;1.35;1.35;;;;;;;18.10;43.94;95252.91;5065523;28;20054;-54
2021/04/29 01:21:21;;;;;;;1.42;1.42;;;;;;;18.07;43.58;95254.31;5065087;28;20106;-55
2021/04/29 01:24:02;;;;;;;1.10;1.10;;;;;;;18.09;44.01;95260.22;5048445;28;20048;-56
2021/04/29 01:26:36;;;;;;;1.25;1.20;;;;;;;18.07;43.48;95257.00;5065205;28;20059;-55
2021/04/29 01:29:13;;;;;;;1.13;1.08;;;;;;;18.06;43.91;95249.97;5066006;28;20504;-55
2021/04/29 01:31:41;;;;;;;1.08;1.08;;;;;;;18.07;43.82;95258.91;5047776;28;20080;-54
2021/04/29 01:34:07;;;;;;;1.10;1.10;;;;;;;18.07;43.60;95248.06;5066165;28;20455;-54
2021/04/29 01:36:34;;;;;;;1.10;1.10;;;;;;;18.06;43.78;95249.97;5064872;28;20057;-55
2021/04/29 01:39:03;;;;;;;1.08;1.08;;;;;;;18.06;43.63;95244.56;5065283;28;20409;-55
2021/04/29 01:41:28;;;;;;;1.15;1.05;;;;;;;18.04;43.74;95246.75;5048650;28;20502;-55
2021/04/29 01:43:54;;;;;;;1.33;1.25;;;;;;;18.04;43.82;95246.75;5065828;28;20058;-55
2021/04/29 01:46:20;;;;;;;1.38;1.30;;;;;;;18.03;43.96;95253.28;5066890;28;20044;-55
2021/04/29 01:48:45;;;;;;;0.85;0.85;;;;;;;18.04;43.57;95252.16;5064821;28;20541;-55
2021/04/29 01:51:11;;;;;;;1.00;1.00;;;;;;;18.04;43.82;95257.59;5049118;28;20048;-54
2021/04/29 01:53:36;;;;;;;1.20;1.20;;;;;;;18.02;43.70;95257.88;5064292;28;20072;-55
2021/04/29 01:56:02;;;;;;;0.98;0.98;;;;;;;18.02;43.72;95251.66;5064574;28;20158;-55
2021/04/29 01:58:28;;;;;;;1.55;1.20;;;;;;;18.02;43.59;95262.50;5065347;28;20723;-54
2021/04/29 02:00:53;;;;;;;1.10;1.10;;;;;;;18.02;43.80;95263.28;5057564;28;20081;-55
2021/04/29 02:03:19;;;;;;;1.58;1.48;;;;;;;18.02;43.41;95262.50;5045247;28;20088;-55
2021/04/29 02:05:45;;;;;;;1.00;1.00;;;;;;;18.00;43.74;95254.66;5045404;28;20045;-55
2021/04/29 02:08:10;;;;;;;1.40;1.30;;;;;;;18.01;43.83;95255.47;5046626;28;20073;-55
2021/04/29 02:10:36;;;;;;;1.00;1.00;;;;;;;18.00;43.99;95245.72;5045238;28;20071;-55
2021/04/29 02:13:01;;;;;;;0.90;0.90;;;;;;;18.01;43.97;95250.06;5027651;28;20140;-56
2021/04/29 02:15:31;;;;;;;0.90;0.90;;;;;;;18.00;44.13;95246.53;5044338;28;20063;-55
2021/04/29 02:18:06;;;;;;;1.00;1.00;;;;;;;17.98;43.55;95237.88;5044095;28;20051;-55
2021/04/29 02:20:32;;;;;;;1.30;1.30;;;;;;;17.99;43.69;95241.41;5027771;28;20056;-54
2021/04/29 02:22:57;;;;;;;0.90;0.90;;;;;;;17.97;43.72;95241.72;5027442;28;20133;-54
2021/04/29 02:25:27;;;;;;;1.00;1.00;;;;;;;17.97;43.94;95247.13;5027622;28;20095;-55
2021/04/29 02:27:54;;;;;;;1.10;1.10;;;;;;;17.97;43.65;95243.63;5044744;28;20044;-54
2021/04/29 02:30:20;;;;;;;1.13;1.13;;;;;;;17.98;43.50;95242.50;5043390;28;20131;-55
2021/04/29 02:32:46;;;;;;;1.15;1.10;;;;;;;17.95;43.63;95237.69;5045211;28;20098;-55
2021/04/29 02:35:15;;;;;;;0.90;0.90;;;;;;;17.97;43.56;95240.91;5045459;28;20048;-55
2021/04/29 02:37:42;;;;;;;1.13;1.13;;;;;;;17.96;43.84;95239.28;5045417;28;20043;-56
2021/04/29 02:40:08;;;;;;;1.35;1.02;;;;;;;17.96;43.57;95231.97;5042910;28;20033;-55
2021/04/29 02:42:34;;;;;;;0.98;0.98;;;;;;;17.95;43.68;95229.56;5044967;28;20502;-55
2021/04/29 02:45:00;;;;;;;1.77;1.67;;;;;;;17.95;43.63;95230.38;5043502;28;20040;-55
2021/04/29 02:47:26;;;;;;;0.90;0.90;;;;;;;17.93;43.80;95224.44;5030260;28;20049;-54
2021/04/29 02:49:51;;;;;;;0.98;0.98;;;;;;;17.94;43.86;95231.44;5046511;28;20090;-55
2021/04/29 02:52:18;;;;;;;0.98;0.98;;;;;;;17.93;43.83;95229.06;5063314;28;20076;-55
2021/04/29 02:54:44;;;;;;;1.05;1.05;;;;;;;17.94;43.72;95230.66;5064799;28;20075;-56
2021/04/29 02:57:09;;;;;;;1.00;1.00;;;;;;;17.92;43.92;95227.44;5065388;28;20151;-54
2021/04/29 02:59:39;;;;;;;1.05;1.05;;;;;;;17.92;43.67;95228.22;5062465;28;20151;-55
2021/04/29 03:02:05;;;;;;;1.00;1.00;;;;;;;17.92;43.51;95219.31;5061901;28;20056;-55
2021/04/29 03:04:31;;;;;;;1.10;1.10;;;;;;;17.91;43.99;95226.63;5063424;28;20044;-56
2021/04/29 03:06:57;;;;;;;1.10;0.98;;;;;;;17.92;44.01;95230.13;5064697;28;20113;-56
2021/04/29 03:09:23;;;;;;;0.80;0.80;;;;;;;17.91;43.64;95229.34;5063914;28;20052;-56
2021/04/29 03:11:49;;;;;;;0.75;0.75;;;;;;;17.92;43.63;95235.56;5064788;28;20083;-57
2021/04/29 03:14:14;;;;;;;1.13;1.13;;;;;;;17.91;43.84;95232.06;5062649;28;20083;-56
2021/04/29 03:16:40;;;;;;;1.00;1.00;;;;;;;17.92;43.71;95232.84;5046020;28;20044;-55
2021/04/29 03:19:05;;;;;;;0.85;0.85;;;;;;;17.91;43.57;95223.13;5044022;28;20122;-55
2021/04/29 03:21:31;;;;;;;0.90;0.90;;;;;;;17.89;43.82;95223.41;5044230;28;20776;-54
2021/04/29 03:23:56;;;;;;;0.85;0.85;;;;;;;17.89;43.63;95217.19;5043956;28;20048;-54
2021/04/29 03:26:22;;;;;;;0.85;0.85;;;;;;;17.88;43.74;95213.66;5044102;28;20072;-54
2021/04/29 03:28:48;;;;;;;0.93;0.93;;;;;;;17.88;44.06;95210.94;5044581;28;20091;-55
2021/04/29 03:31:13;;;;;;;1.00;1.00;;;;;;;17.89;43.76;95207.16;5047479;28;20072;-54
2021/04/29 03:33:39;;;;;;;1.00;1.00;;;;;;;17.88;43.97;95210.94;5084892;28;20075;-55
2021/04/29 03:36:05;;;;;;;0.90;0.90;;;;;;;17.87;43.53;95203.94;5084390;28;20323;-55
2021/04/29 03:38:30;;;;;;;1.00;1.00;;;;;;;17.87;43.71;95203.13;5085047;28;20051;-54
2021/04/29 03:40:56;;;;;;;0.80;0.80;;;;;;;17.86;43.99;95205.03;5084382;28;20130;-55
2021/04/29 03:43:21;;;;;;;1.00;1.00;;;;;;;17.86;43.67;95207.72;5084396;28;20052;-54
2021/04/29 03:45:47;;;;;;;0.90;0.90;;;;;;;17.86;44.01;95209.66;5084309;28;20071;-55
2021/04/29 03:48:13;;;;;;;0.80;0.80;;;;;;;17.86;43.86;95210.44;5068923;28;20080;-55
2021/04/29 03:50:39;;;;;;;0.85;0.85;;;;;;;17.86;43.66;95210.44;5063129;28;20593;-55
2021/04/29 03:53:04;;;;;;;0.90;0.90;;;;;;;17.86;43.85;95206.94;5063840;28;20223;-55
2021/04/29 03:55:30;;;;;;;0.75;0.75;;;;;;;17.85;43.99;95208.06;5064373;28;20424;-55
2021/04/29 03:57:56;;;;;;;0.93;0.93;;;;;;;17.83;43.80;95213.75;5064556;28;20056;-55
2021/04/29 04:00:21;;;;;;;1.00;1.00;;;;;;;17.84;43.98;95209.97;5063004;28;20435;-54
2021/04/29 04:02:47;;;;;;;0.80;0.80;;;;;;;17.83;43.66;95208.34;5063950;28;20599;-54
2021/04/29 04:05:12;;;;;;;1.10;1.00;;;;;;;17.81;43.84;95200.47;5064447;28;20153;-56
2021/04/29 04:07:38;;;;;;;1.00;1.00;;;;;;;17.82;43.58;95206.72;5064033;28;20649;-55
2021/04/29 04:10:04;;;;;;;0.70;0.70;;;;;;;17.81;43.88;95205.88;5063824;28;20048;-54
2021/04/29 04:12:30;;;;;;;0.90;0.90;;;;;;;17.81;43.83;95210.50;5065584;28;20044;-54
2021/04/29 04:14:55;;;;;;;0.80;0.80;;;;;;;17.80;43.66;95212.41;5081271;28;20078;-54
2021/04/29 04:17:21;;;;;;;1.08;1.08;;;;;;;17.80;43.69;95212.41;5075628;28;20041;-55
2021/04/29 04:19:47;;;;;;;0.98;0.98;;;;;;;17.80;43.97;95208.91;5047512;28;20051;-55
2021/04/29 04:22:12;;;;;;;0.90;0.90;;;;;;;17.79;43.52;95208.09;5048517;28;20077;-55
2021/04/29 04:24:38;;;;;;;0.80;0.80;;;;;;;17.79;43.52;95218.91;5047147;28;20075;-54
2021/04/29 04:27:04;;;;;;;0.80;0.80;;;;;;;17.79;43.76;95215.41;5047651;28;20044;-55
2021/04/29 04:29:29;;;;;;;1.00;1.00;;;;;;;17.77;43.59;95218.41;5047528;28;20041;-55
2021/04/29 04:31:55;;;;;;;0.90;0.90;;;;;;;17.78;43.96;95214.59;5046582;28;20057;-56
2021/04/29 04:34:21;;;;;;;1.05;1.05;;;;;;;17.78;43.91;95211.91;5047436;28;20089;-54
2021/04/29 04:36:46;;;;;;;0.68;0.68;;;;;;;17.79;43.73;95215.41;5046725;28;20554;-54
2021/04/29 04:39:12;;;;;;;0.63;0.63;;;;;;;17.77;43.81;95210.28;5047992;28;20052;-54
2021/04/29 04:41:38;;;;;;;0.98;0.98;;;;;;;17.76;43.68;95208.69;5047070;28;20136;-55
2021/04/29 04:44:03;;;;;;;0.70;0.70;;;;;;;17.76;43.87;95203.25;5046836;28;20570;-55
2021/04/29 04:46:29;;;;;;;1.08;0.95;;;;;;;17.76;43.48;95205.97;5045891;28;20619;-54
2021/04/29 04:48:54;;;;;;;1.00;1.00;;;;;;;17.75;43.71;95206.25;5046476;28;20084;-55
2021/04/29 04:51:20;;;;;;;1.00;1.00;;;;;;;17.75;43.61;95211.69;5046873;28;20069;-55
2021/04/29 04:53:46;;;;;;;0.80;0.80;;;;;;;17.74;43.60;95208.16;5047176;28;20095;-56
2021/04/29 04:56:11;;;;;;;0.90;0.90;;;;;;;17.74;43.46;95204.66;5047825;28;20363;-55
2021/04/29 04:58:37;;;;;;;0.82;0.82;;;;;;;17.75;43.50;95211.69;5046857;28;20131;-55
2021/04/29 05:01:03;;;;;;;0.70;0.70;;;;;;;17.73;43.55;95208.47;5055447;28;20091;-55
2021/04/29 05:03:28;;;;;;;1.00;1.00;;;;;;;17.74;43.56;95220.91;5066183;28;20135;-54
2021/04/29 05:05:54;;;;;;;0.93;0.93;;;;;;;17.73;43.83;95209.25;5065367;28;20117;-54
2021/04/29 05:08:19;;;;;;;0.80;0.80;;;;;;;17.73;43.73;95208.47;5065597;28;20096;-55
2021/04/29 05:10:45;;;;;;;1.00;1.00;;;;;;;17.72;43.82;95206.88;5067211;28;20052;-54
2021/04/29 05:13:11;;;;;;;1.83;0.98;;;;;;;17.71;43.73;95211.44;5067054;28;20048;-55
2021/04/29 05:15:36;;;;;;;0.98;0.98;;;;;;;17.72;43.89;95212.28;5066273;28;20110;-56
2021/04/29 05:18:03;;;;;;;0.93;0.93;;;;;;;17.70;43.55;95214.47;5065537;28;20090;-55
2021/04/29 05:20:29;;;;;;;0.90;0.90;;;;;;;17.70;43.82;95212.56;5057405;28;20056;-54
2021/04/29 05:22:54;;;;;;;0.70;0.70;;;;;;;17.70;43.79;95220.69;5046356;28;20044;-56
2021/04/29 05:25:22;;;;;;;0.82;0.82;;;;;;;17.70;43.56;95226.09;5045910;28;20048;-55
2021/04/29 05:27:49;;;;;;;0.82;0.82;;;;;;;17.70;44.05;95223.41;5044613;28;20055;-55
2021/04/29 05:30:15;;;;;;;0.82;0.82;;;;;;;17.70;43.50;95226.09;5047208;28;20053;-55
2021/04/29 05:32:41;;;;;;;1.10;1.10;;;;;;;17.68;43.97;95220.19;5047001;28;20065;-55
2021/04/29 05:35:07;;;;;;;0.73;0.73;;;;;;;17.69;43.85;95223.69;5044930;28;20044;-56
2021/04/29 05:37:32;;;;;;;0.80;0.80;;;;;;;17.69;43.69;95229.09;5046448;28;20056;-55
2021/04/29 05:39:58;;;;;;;0.70;0.70;;;;;;;17.68;43.72;95228.31;5045334;28;20524;-55
2021/04/29 05:42:24;;;;;;;1.17;1.17;;;;;;;17.67;43.78;95226.66;5046079;28;20049;-55
2021/04/29 05:44:49;;;;;;;0.80;0.80;;;;;;;17.68;43.58;95227.50;5044580;28;20076;-56
2021/04/29 05:47:15;;;;;;;0.90;0.90;;;;;;;17.68;43.63;95220.19;5045949;28;20036;-55
2021/04/29 05:49:42;;;;;;;0.88;0.88;;;;;;;17.68;44.01;95224.78;5046669;28;20075;-56
2021/04/29 05:52:08;;;;;;;1.10;1.10;;;;;;;17.67;43.95;95221.25;5045664;28;20057;-56
2021/04/29 05:54:34;;;;;;;1.00;1.00;;;;;;;17.67;43.89;95226.66;5045921;28;20045;-56
2021/04/29 05:57:00;;;;;;;0.60;0.60;;;;;;;17.67;43.81;95223.97;5045925;28;20132;-56
2021/04/29 05:59:26;;;;;;;1.08;0.80;;;;;;;17.67;43.97;95217.75;5045239;28;20102;-56
2021/04/29 06:01:52;;;;;;;0.80;0.80;;;;;;;17.66;43.90;95219.66;5060725;28;20129;-55
2021/04/29 06:04:17;;;;;;;1.45;0.98;;;;;;;17.66;44.10;95222.38;5064942;28;20048;-56
2021/04/29 06:06:45;;;;;;;0.90;0.90;;;;;;;17.65;43.82;95223.44;5066925;28;20151;-55
2021/04/29 06:09:11;;;;;;;0.80;0.80;;;;;;;17.65;43.75;95223.44;5065651;28;20052;-55
2021/04/29 06:11:36;;;;;;;0.70;0.70;;;;;;;17.66;43.57;95227.00;5064877;28;20052;-55
2021/04/29 06:14:02;;;;;;;0.98;0.98;;;;;;;17.63;43.68;95221.06;5065844;28;20122;-55
2021/04/29 06:16:28;;;;;;;0.90;0.90;;;;;;;17.65;43.74;95230.78;5065064;28;20040;-55
2021/04/29 06:18:53;;;;;;;0.80;0.80;;;;;;;17.65;43.76;95242.41;5074253;28;20130;-56
2021/04/29 06:21:19;;;;;;;0.98;0.98;;;;;;;17.64;43.63;95232.69;5085182;28;20032;-54
2021/04/29 06:23:45;;;;;;;0.75;0.75;;;;;;;17.65;43.62;95244.31;5085389;28;20154;-55
2021/04/29 06:26:10;;;;;;;1.13;0.95;;;;;;;17.62;43.98;95235.69;5070778;28;20082;-55
2021/04/29 06:28:36;;;;;;;1.10;1.10;;;;;;;17.64;43.96;95240.81;5065225;28;20052;-55
2021/04/29 06:31:01;;;;;;;1.00;1.00;;;;;;;17.62;43.60;95238.38;5063209;28;20093;-55
2021/04/29 06:33:27;;;;;;;0.90;0.90;;;;;;;17.63;43.80;95231.06;5065469;28;20094;-55
2021/04/29 06:35:53;;;;;;;1.25;1.20;;;;;;;17.63;44.08;95231.06;5064634;28;20094;-56
2021/04/29 06:38:19;;;;;;;1.02;0.90;;;;;;;17.62;43.65;95224.84;5063833;28;20052;-55
2021/04/29 06:40:45;;;;;;;1.00;1.00;;;;;;;17.61;44.11;95227.84;5065247;28;20613;-54
2021/04/29 06:43:10;;;;;;;0.77;0.77;;;;;;;17.62;43.61;95226.75;5065622;28;20660;-55
2021/04/29 06:45:36;;;;;;;0.90;0.90;;;;;;;17.62;43.65;95229.47;5064255;28;20091;-55
2021/04/29 06:48:02;;;;;;;0.90;0.90;;;;;;;17.61;43.86;95228.66;5058551;28;20047;-56
2021/04/29 06:50:27;;;;;;;1.23;0.80;;;;;;;17.62;44.22;95245.72;5064411;28;20050;-55
2021/04/29 06:52:53;;;;;;;0.85;0.85;;;;;;;17.62;43.78;95249.22;5063029;28;20726;-55
2021/04/29 06:55:18;;;;;;;1.00;1.00;;;;;;;17.62;43.96;95249.22;5063446;28;20047;-55
2021/04/29 06:57:44;;;;;;;1.52;1.00;;;;;;;17.63;43.94;95250.84;5065432;28;20048;-55
2021/04/29 07:00:10;;;;;;;0.75;0.75;;;;;;;17.64;44.04;95254.34;5064455;28;20527;-54
2021/04/29 07:02:36;;;;;;;1.13;0.90;;;;;;;17.66;44.41;95256.78;5060548;28;20112;-55
2021/04/29 07:05:01;;;;;;;1.35;1.08;;;;;;;17.66;44.13;95262.19;5062637;28;20137;-55
2021/04/29 07:07:27;;;;;;;1.05;1.05;;;;;;;17.66;44.27;95262.19;5062138;28;20110;-55
2021/04/29 07:09:53;;;;;;;0.88;0.88;;;;;;;17.67;44.50;95264.59;5056850;28;20075;-54
2021/04/29 07:12:18;;;;;;;1.33;0.82;;;;;;;17.68;44.67;95265.41;5060847;28;20519;-56
2021/04/29 07:14:44;;;;;;;1.10;1.10;;;;;;;17.68;44.49;95274.34;5063770;28;20123;-55
2021/04/29 07:17:10;;;;;;;0.90;0.90;;;;;;;17.70;44.45;95272.13;5062488;28;20066;-54
2021/04/29 07:19:36;;;;;;;0.95;0.95;;;;;;;17.70;44.43;95266.72;5064229;28;20049;-56
2021/04/29 07:22:02;;;;;;;0.80;0.80;;;;;;;17.71;44.64;95271.03;5061629;28;20052;-55
2021/04/29 07:24:28;;;;;;;0.77;0.77;;;;;;;17.72;44.64;95274.56;5063383;28;20660;-56
2021/04/29 07:26:54;;;;;;;1.10;1.10;;;;;;;17.72;44.94;95271.84;5061967;28;20504;-56
2021/04/29 07:29:20;;;;;;;0.70;0.70;;;;;;;17.72;44.71;95267.25;5045395;28;20049;-56
2021/04/29 07:31:46;;;;;;;0.95;0.95;;;;;;;17.73;44.72;95265.31;5043503;28;20555;-55
2021/04/29 07:34:12;;;;;;;1.00;1.00;;;;;;;17.72;44.80;95267.25;5046215;28;20094;-55
2021/04/29 07:36:38;;;;;;;0.95;0.95;;;;;;;17.74;44.83;95270.47;5054582;28;20102;-55
2021/04/29 07:39:04;;;;;;;1.30;0.90;;;;;;;17.74;44.55;95254.22;5063456;28;20550;-54
2021/04/29 07:41:30;;;;;;;0.82;0.82;;;;;;;17.75;44.46;95263.13;5062577;28;20751;-56
2021/04/29 07:43:57;;;;;;;0.80;0.80;;;;;;;17.77;44.34;95269.06;5063073;28;20044;-54
2021/04/29 07:46:23;;;;;;;1.60;1.10;;;;;;;17.76;44.73;95260.13;5064481;28;20094;-54
2021/04/29 07:48:49;;;;;;;0.77;0.77;;;;;;;17.76;44.46;95265.56;5066371;28;20066;-55
2021/04/29 07:51:15;;;;;;;0.85;0.85;;;;;;;17.74;44.29;95253.41;5068386;28;20049;-55
2021/04/29 07:53:40;;;;;;;0.82;0.82;;;;;;;17.73;44.58;95255.28;5068212;28;20055;-55
2021/04/29 07:56:06;;;;;;;0.88;0.88;;;;;;;17.77;44.77;95258.22;5067707;28;20048;-55
2021/04/29 07:58:32;;;;;;;0.93;0.90;;;;;;;17.76;44.50;95257.44;5067076;28;20642;-55
2021/04/29 08:00:57;;;;;;;1.10;1.00;;;;;;;17.76;44.73;95256.63;5067870;28;20791;-56
2021/04/29 08:03:23;;;;;;;0.93;0.93;;;;;;;17.77;44.82;95258.22;5068078;28;20052;-55
2021/04/29 08:05:49;;;;;;;0.88;0.88;;;;;;;17.77;44.32;95253.59;5068364;28;20434;-55
2021/04/29 08:08:16;;;;;;;0.88;0.88;;;;;;;17.77;44.45;95253.59;5069275;28;20048;-56
2021/04/29 08:10:41;;;;;;;1.48;1.00;;;;;;;17.78;44.61;95255.22;5067951;28;20041;-56
2021/04/29 08:13:10;;;;;;;1.13;0.90;;;;;;;17.80;44.61;95263.88;5068204;28;20569;-56
2021/04/29 08:15:36;;;;;;;0.80;0.80;;;;;;;17.81;44.54;95260.06;5067758;28;20053;-55
2021/04/29 08:18:01;;;;;;;1.00;1.00;;;;;;;17.80;44.38;95258.47;5061675;28;20582;-56
2021/04/29 08:20:27;;;;;;;0.88;0.88;;;;;;;17.80;44.50;95261.16;5078724;28;20131;-55
2021/04/29 08:22:52;;;;;;;1.05;0.90;;;;;;;17.81;44.53;95260.06;5064448;28;20135;-56
2021/04/29 08:25:18;;;;;;;0.95;0.95;;;;;;;17.81;44.41;95262.75;5067078;28;20047;-56
2021/04/29 08:27:44;;;;;;;2.08;1.00;;;;;;;17.82;44.65;95263.59;5068452;28;20041;-57
2021/04/29 08:30:10;;;;;;;0.95;0.90;;;;;;;17.82;45.00;95266.31;5067691;28;20063;-55
2021/04/29 08:32:36;;;;;;;1.05;1.05;;;;;;;17.82;44.94;95261.72;5065892;28;20056;-56
2021/04/29 08:35:01;;;;;;;0.80;0.80;;;;;;;17.82;44.70;95264.41;5067021;28;20087;-56
2021/04/29 08:37:27;;;;;;;1.30;1.25;;;;;;;17.86;45.01;95277.38;5066891;28;20055;-57
2021/04/29 08:39:52;;;;;;;1.88;1.67;;;;;;;17.87;44.84;95273.56;5066754;28;20503;-56
2021/04/29 08:42:18;;;;;;;3.25;2.95;;;;;;;17.89;45.00;95279.50;5065994;28;20036;-57
2021/04/29 08:44:44;;;;;;;4.28;3.85;;;;;;;17.89;45.63;95282.22;5066659;28;20633;-57
2021/04/29 08:47:09;;;;;;;5.43;2.58;;;;;;;17.90;45.79;95279.19;5066306;28;20041;-57
2021/04/29 08:49:36;;;;;;;3.13;2.83;;;;;;;17.91;45.68;95278.09;5063847;28;20767;-56
2021/04/29 08:52:03;;;;;;;2.47;2.10;;;;;;;17.93;45.68;95288.66;5030058;28;20491;-57
2021/04/29 08:54:28;;;;;;;4.63;2.80;;;;;;;17.94;45.59;95282.13;5064537;28;20052;-59
2021/04/29 08:56:54;;;;;;;3.30;2.45;;;;;;;17.95;45.88;95283.75;5064151;28;20098;-58
2021/04/29 08:59:21;;;;;;;4.88;2.97;;;;;;;17.95;45.72;95284.53;5065189;28;20040;-58
2021/04/29 09:01:47;;;;;;;2.95;2.70;;;;;;;17.95;45.55;95291.88;5065314;28;20068;-58
2021/04/29 09:04:14;;;;;;;3.35;2.95;;;;;;;17.97;45.79;95292.38;5065669;28;20048;-58
2021/04/29 09:06:46;;;;;;;7.10;2.95;;;;;;;17.97;45.64;95290.47;5061966;28;20048;-59
2021/04/29 09:09:12;;;;;;;4.00;3.60;;;;;;;17.98;45.38;95293.97;5046980;28;20060;-59
2021/04/29 09:12:07;;;;;;;3.83;3.10;;;;;;;17.97;45.50;95297.81;5045755;28;20060;-59
2021/04/29 09:14:40;;;;;;;5.78;3.47;;;;;;;17.98;45.64;95297.50;5045413;28;20060;-59
2021/04/29 09:17:06;;;;;;;5.68;2.90;;;;;;;17.98;45.36;95300.19;5046141;28;20535;-59
2021/04/29 09:19:35;;;;;;;2.85;2.60;;;;;;;17.97;45.77;95305.94;5044350;28;20045;-58
2021/04/29 09:22:03;;;;;;;4.30;2.70;;;;;;;17.97;45.49;95301.31;5045268;28;20052;-57
2021/04/29 09:24:39;;;;;;;3.50;3.20;;;;;;;17.96;45.75;95301.59;5043568;28;20148;-58
2021/04/29 09:27:14;;;;;;;4.97;2.97;;;;;;;17.96;45.49;95310.53;5028702;28;20072;-58
2021/04/29 09:29:59;;;;;;;4.07;2.78;;;;;;;17.97;45.66;95303.22;5048774;28;20051;-59
2021/04/29 09:32:31;;;;;;;2.75;2.55;;;;;;;17.97;45.43;95311.34;5064064;28;20415;-57
2021/04/29 09:34:56;;;;;;;4.35;2.67;;;;;;;17.96;45.46;95307.81;5065797;28;20063;-59
2021/04/29 09:37:29;;;;;;;2.53;2.33;;;;;;;17.95;45.54;95300.78;5065596;28;20067;-59
2021/04/29 09:39:54;;;;;;;3.15;2.40;;;;;;;17.96;45.25;95301.59;5039146;28;758041;-59
2021/04/29 09:42:49;;;;;;;2.47;2.10;;;;;;;17.95;45.28;95306.22;5066281;28;20151;-59
2021/04/29 09:45:31;;;;;;;3.27;2.30;;;;;;;17.97;45.23;95304.03;5062051;28;20431;-59
2021/04/29 09:48:11;;;;;;;2.65;2.28;;;;;;;17.95;45.23;95302.72;5066763;28;20282;-57
2021/04/29 09:50:41;;;;;;;2.50;2.30;;;;;;;17.96;45.25;95309.72;5064929;28;20127;-57
2021/04/29 09:53:09;;;;;;;2.40;2.20;;;;;;;17.96;45.39;95307.00;5066268;28;20060;-57
2021/04/29 09:55:39;;;;;;;2.95;2.38;;;;;;;17.97;45.36;95316.78;5065113;28;20406;-57
2021/04/29 09:58:17;;;;;;;3.63;2.00;;;;;;;17.97;45.46;95312.16;5066265;28;20467;-57
2021/04/29 10:00:52;;;;;;;2.00;1.85;;;;;;;17.96;45.26;95312.44;5065519;28;20108;-57
2021/04/29 10:03:18;;;;;;;;;;;;;;;17.96;45.42;95313.22;5065612;28;20107;-57
2021/04/29 10:05:46;;;;;;;2.78;1.95;;;;;;;17.96;45.56;95315.94;5060108;28;19927;-57
2021/04/29 10:08:17;;;;;;;2.25;1.83;;;;;;;17.95;45.42;95314.34;5062545;28;20097;-58
2021/04/29 10:10:44;;;;;;;4.32;2.17;;;;;;;17.96;45.26;95307.00;5057015;28;20033;-57
2021/04/29 10:13:10;;;;;;;2.00;1.90;;;;;;;17.98;45.37;95318.38;5064717;28;20542;-57
2021/04/29 10:15:38;;;;;;;3.33;2.03;;;;;;;17.97;45.49;95316.78;5056339;28;20053;-57
2021/04/29 10:18:04;;;;;;;5.65;2.67;;;;;;;17.99;45.53;95320.78;5046232;28;20037;-56
2021/04/29 10:20:30;;;;;;;10.20;4.78;;;;;;;17.99;45.62;95320.00;5045733;28;20056;-55
2021/04/29 10:22:56;;;;;;;16.45;6.35;;;;;;;17.99;45.73;95318.09;5044175;28;20049;-57
2021/04/29 10:25:31;;;;;;;26.92;8.85;;;;;;;18.01;45.65;95315.09;5043998;28;20144;-57
2021/04/29 10:27:57;;;;;;;30.48;11.40;;;;;;;18.02;46.60;95317.47;5045586;28;20531;-56
2021/04/29 10:30:36;;;;;;;16.70;8.10;;;;;;;18.04;46.34;95317.19;5055373;28;20413;-57
2021/04/29 10:33:18;;;;;;;21.40;8.60;;;;;;;18.06;46.44;95320.41;5064278;28;20126;-56
2021/04/29 10:36:00;;;;;;;15.23;6.13;;;;;;;18.08;46.64;95323.63;5066336;28;20048;-55
2021/04/29 10:38:33;;;;;;;15.25;5.93;;;;;;;18.10;46.26;95326.88;5063889;28;20048;-56
2021/04/29 10:41:25;;;;;;;12.38;5.75;;;;;;;18.10;46.50;95323.34;5064089;28;20097;-56
2021/04/29 10:43:53;;;;;;;14.38;5.28;;;;;;;18.12;46.47;95313.03;5059204;28;20113;-55
2021/04/29 10:46:25;;;;;;;13.15;4.90;;;;;;;18.13;46.21;95323.56;5065206;28;20071;-57
2021/04/29 10:48:51;;;;;;;11.98;5.07;;;;;;;18.15;46.26;95328.69;5063532;28;20041;-56
2021/04/29 10:51:16;;;;;;;12.30;5.10;;;;;;;18.15;46.57;95326.78;5044864;28;20561;-57
2021/04/29 10:53:42;;;;;;;18.23;6.72;;;;;;;18.16;46.65;95322.19;5063738;28;20127;-58
2021/04/29 10:56:17;;;;;;;10.63;4.13;;;;;;;18.17;46.54;95330.00;5064455;28;20044;-56
2021/04/29 10:58:43;;;;;;;12.63;4.40;;;;;;;18.17;46.50;95327.28;5064151;28;20127;-57
2021/04/29 11:01:13;;;;;;;11.10;4.32;;;;;;;18.19;46.75;95327.00;5055746;28;20155;-56
2021/04/29 11:03:46;;;;;;;11.25;3.97;;;;;;;18.18;46.65;95322.69;5062662;28;20048;-56
2021/04/29 11:06:14;;;;;;;10.98;4.65;;;;;;;18.19;46.69;95327.81;5065500;28;20076;-56
2021/04/29 11:08:45;;;;;;;10.60;4.35;;;;;;;18.20;46.72;95325.91;5064726;28;20040;-56
2021/04/29 11:11:29;;;;;;;9.65;3.40;;;;;;;18.19;46.88;95327.00;5065249;28;20466;-57
2021/04/29 11:14:02;;;;;;;12.15;4.32;;;;;;;18.19;46.25;95327.00;5064147;28;20154;-57
2021/04/29 11:16:29;;;;;;;10.05;4.65;;;;;;;18.20;46.67;95328.63;5063211;28;20503;-57
2021/04/29 11:18:55;;;;;;;8.38;3.58;;;;;;;18.19;46.39;95321.59;5064413;28;20675;-56
2021/04/29 11:21:27;;;;;;;10.57;4.38;;;;;;;18.20;46.50;95331.34;5062709;28;20044;-57
2021/04/29 11:23:53;;;;;;;6.97;3.10;;;;;;;18.20;46.61;95326.72;5061749;28;20044;-57
2021/04/29 11:26:20;;;;;;;5.80;3.20;;;;;;;18.21;46.48;95322.09;5063529;28;20606;-58
2021/04/29 11:28:50;;;;;;;6.13;2.83;;;;;;;18.22;46.20;95323.72;5064039;28;20048;-57
2021/04/29 11:31:18;;;;;;;13.25;4.45;;;;;;;18.22;46.54;95327.22;5062540;28;20091;-57
2021/04/29 11:33:45;;;;;;;7.63;3.72;;;;;;;18.23;46.32;95328.03;5061765;28;20049;-57